createdAt,value
2018-06-22T00:01:39.506Z,1.20
2018-06-22T00:04:08.275Z,1.20
2018-06-22T00:06:36.779Z,1.10
2018-06-22T00:09:07.063Z,1.30
2018-06-22T00:11:35.359Z,1.13
2018-06-22T00:14:03.686Z,1.00
2018-06-22T00:16:32.022Z,1.03
2018-06-22T00:19:00.300Z,1.50
2018-06-22T00:21:28.579Z,1.20
2018-06-22T00:23:56.851Z,1.30
2018-06-22T00:26:25.148Z,1.27
2018-06-22T00:28:53.520Z,1.20
2018-06-22T00:31:21.812Z,1.53
2018-06-22T00:33:50.084Z,1.23
2018-06-22T00:36:18.382Z,1.40
2018-06-22T00:38:46.642Z,1.10
2018-06-22T00:41:14.935Z,1.47
2018-06-22T00:43:43.188Z,1.40
2018-06-22T00:46:11.460Z,1.20
2018-06-22T00:48:39.735Z,1.27
2018-06-22T00:51:08.047Z,1.00
2018-06-22T00:53:47.538Z,1.33
2018-06-22T00:56:16.634Z,1.20
2018-06-22T00:58:44.903Z,1.17
2018-06-22T01:01:13.171Z,1.77
2018-06-22T01:03:41.435Z,1.70
2018-06-22T01:06:09.693Z,1.40
2018-06-22T01:08:38.041Z,1.27
2018-06-22T01:11:06.493Z,1.27
2018-06-22T01:13:34.783Z,1.80
2018-06-22T01:16:03.043Z,1.40
2018-06-22T01:18:31.327Z,1.63
2018-06-22T01:20:59.591Z,1.40
2018-06-22T01:23:27.979Z,1.80
2018-06-22T01:25:56.244Z,1.60
2018-06-22T01:28:24.523Z,1.70
2018-06-22T01:30:52.790Z,2.50
2018-06-22T01:33:21.079Z,1.40
2018-06-22T01:35:49.351Z,1.40
2018-06-22T01:38:17.625Z,1.23
2018-06-22T01:40:45.890Z,1.50
2018-06-22T01:43:14.211Z,1.27
2018-06-22T01:45:42.514Z,1.73
2018-06-22T01:48:10.804Z,2.60
2018-06-22T01:50:39.113Z,1.73
2018-06-22T01:53:07.418Z,1.40
2018-06-22T01:55:35.711Z,2.00
2018-06-22T01:58:04.027Z,1.67
2018-06-22T02:00:32.309Z,1.83
2018-06-22T02:03:00.590Z,1.73
2018-06-22T02:05:28.877Z,1.70
2018-06-22T02:07:57.159Z,1.53
2018-06-22T02:10:25.498Z,1.90
2018-06-22T02:12:53.766Z,1.80
2018-06-22T02:15:22.067Z,1.80
2018-06-22T02:17:50.344Z,2.13
2018-06-22T02:20:18.652Z,1.77
2018-06-22T02:22:46.927Z,1.80
2018-06-22T02:25:15.227Z,1.70
2018-06-22T02:27:43.501Z,1.77
2018-06-22T02:30:11.786Z,2.40
2018-06-22T02:32:40.063Z,1.50
2018-06-22T02:35:08.386Z,1.67
2018-06-22T02:37:36.668Z,1.97
2018-06-22T02:40:05.169Z,1.80
2018-06-22T02:42:33.471Z,2.17
2018-06-22T02:45:01.765Z,2.10
2018-06-22T02:47:30.063Z,2.10
2018-06-22T02:49:58.345Z,2.27
2018-06-22T02:52:26.635Z,2.50
2018-06-22T02:54:54.920Z,1.90
2018-06-22T02:57:23.209Z,2.80
2018-06-22T02:59:51.558Z,2.43
2018-06-22T03:02:19.807Z,2.20
2018-06-22T03:04:48.081Z,2.17
2018-06-22T03:07:16.389Z,2.23
2018-06-22T03:09:44.701Z,2.40
2018-06-22T03:12:13.000Z,2.57
2018-06-22T03:14:41.269Z,2.80
2018-06-22T03:17:09.596Z,2.90
2018-06-22T03:19:37.860Z,2.40
2018-06-22T03:22:06.136Z,2.10
2018-06-22T03:24:34.424Z,2.20
2018-06-22T03:27:02.720Z,1.80
2018-06-22T03:29:31.010Z,1.60
2018-06-22T03:31:59.288Z,2.50
2018-06-22T03:34:27.599Z,2.10
2018-06-22T03:36:55.886Z,2.30
2018-06-22T03:39:24.218Z,1.83
2018-06-22T03:41:52.509Z,2.30
2018-06-22T03:44:20.839Z,2.30
2018-06-22T03:46:49.120Z,1.93
2018-06-22T03:49:17.431Z,2.30
2018-06-22T03:51:45.712Z,2.20
2018-06-22T03:54:14.008Z,2.20
2018-06-22T03:56:42.360Z,2.03
2018-06-22T03:59:10.646Z,1.87
2018-06-22T04:01:38.995Z,2.73
2018-06-22T04:04:07.312Z,2.00
2018-06-22T04:06:35.587Z,1.90
2018-06-22T04:09:04.340Z,2.10
2018-06-22T04:11:32.579Z,1.87
2018-06-22T04:14:00.878Z,2.07
2018-06-22T04:16:29.348Z,2.20
2018-06-22T04:18:57.643Z,3.50
2018-06-22T04:21:25.929Z,2.27
2018-06-22T04:23:54.231Z,1.87
2018-06-22T04:26:22.611Z,2.33
2018-06-22T04:28:50.968Z,1.87
2018-06-22T04:31:19.230Z,1.63
2018-06-22T04:33:47.511Z,2.20
2018-06-22T04:36:15.830Z,1.70
2018-06-22T04:38:44.182Z,1.70
2018-06-22T04:41:12.455Z,1.70
2018-06-22T04:43:40.791Z,1.93
2018-06-22T04:46:09.379Z,1.73
2018-06-22T04:48:37.714Z,1.30
2018-06-22T04:51:06.110Z,1.97
2018-06-22T04:53:34.387Z,2.17
2018-06-22T04:56:02.681Z,1.70
2018-06-22T04:58:30.967Z,1.23
2018-06-22T05:00:59.271Z,1.70
2018-06-22T05:03:27.559Z,1.60
2018-06-22T05:05:55.827Z,2.00
2018-06-22T05:08:24.089Z,1.40
2018-06-22T05:10:52.211Z,1.87
2018-06-22T05:13:20.503Z,2.03
2018-06-22T05:15:48.794Z,1.77
2018-06-22T05:18:17.101Z,1.50
2018-06-22T05:20:45.470Z,1.60
2018-06-22T05:23:13.755Z,1.47
2018-06-22T05:25:42.059Z,1.30
2018-06-22T05:28:10.356Z,1.37
2018-06-22T05:30:38.672Z,1.33
2018-06-22T05:33:06.946Z,2.40
2018-06-22T05:35:35.250Z,1.73
2018-06-22T05:38:03.567Z,1.60
2018-06-22T05:40:31.870Z,1.20
2018-06-22T05:43:00.157Z,1.70
2018-06-22T05:45:28.468Z,1.60
2018-06-22T05:47:56.884Z,2.07
2018-06-22T05:50:25.168Z,1.40
2018-06-22T05:52:53.479Z,1.10
2018-06-22T05:55:21.751Z,1.17
2018-06-22T05:57:50.039Z,1.40
2018-06-22T06:00:18.306Z,1.00
2018-06-22T06:02:46.590Z,1.30
2018-06-22T06:05:14.861Z,1.00
2018-06-22T06:07:43.191Z,1.20
2018-06-22T06:10:11.474Z,0.97
2018-06-22T06:12:39.820Z,1.00
2018-06-22T06:15:08.075Z,1.50
2018-06-22T06:17:36.363Z,1.30
2018-06-22T06:20:05.771Z,1.17
2018-06-22T06:22:34.043Z,1.70
2018-06-22T06:25:02.312Z,1.07
2018-06-22T06:27:30.639Z,1.57
2018-06-22T06:29:58.896Z,1.07
2018-06-22T06:32:27.183Z,1.50
2018-06-22T06:34:55.435Z,1.27
2018-06-22T06:37:23.731Z,0.90
2018-06-22T06:39:51.986Z,1.13
2018-06-22T06:42:20.266Z,1.23
2018-06-22T06:44:48.523Z,0.90
2018-06-22T06:47:16.812Z,0.77
2018-06-22T06:49:45.064Z,1.30
2018-06-22T06:52:13.351Z,1.70
2018-06-22T06:54:41.627Z,1.27
2018-06-22T06:57:09.967Z,1.20
2018-06-22T06:59:38.258Z,1.33
2018-06-22T07:02:06.536Z,1.17
2018-06-22T07:04:34.797Z,1.00
2018-06-22T07:07:03.107Z,1.13
2018-06-22T07:09:31.431Z,0.97
2018-06-22T07:11:59.728Z,1.20
2018-06-22T07:14:28.048Z,0.80
2018-06-22T07:16:56.331Z,1.17
2018-06-22T07:19:24.632Z,0.80
2018-06-22T07:21:52.914Z,1.17
2018-06-22T07:24:21.241Z,1.20
2018-06-22T07:26:49.519Z,0.90
2018-06-22T07:29:17.831Z,0.80
2018-06-22T07:31:46.120Z,0.80
2018-06-22T07:34:14.519Z,1.00
2018-06-22T07:36:42.808Z,0.80
2018-06-22T07:39:12.151Z,1.20
2018-06-22T07:41:40.828Z,1.17
2018-06-22T07:44:09.563Z,0.70
2018-06-22T07:46:38.031Z,0.63
2018-06-22T07:49:06.326Z,0.70
2018-06-22T07:51:34.609Z,0.90
2018-06-22T07:54:02.920Z,1.23
2018-06-22T07:56:31.315Z,0.70
2018-06-22T07:58:59.610Z,0.70
2018-06-22T08:01:27.907Z,0.90
2018-06-22T08:03:56.199Z,0.60
2018-06-22T08:06:24.512Z,0.73
2018-06-22T08:08:52.851Z,0.60
2018-06-22T08:11:21.146Z,0.60
2018-06-22T08:13:49.456Z,0.50
2018-06-22T08:16:17.734Z,0.70
2018-06-22T08:18:46.138Z,0.60
2018-06-22T08:21:14.403Z,1.10
2018-06-22T08:23:42.715Z,0.90
2018-06-22T08:26:11.003Z,0.80
2018-06-22T08:28:39.319Z,1.20
2018-06-22T08:31:07.614Z,0.97
2018-06-22T08:33:35.958Z,0.83
2018-06-22T08:36:04.256Z,1.23
2018-06-22T08:38:32.527Z,0.73
2018-06-22T08:41:00.815Z,0.73
2018-06-22T08:43:29.084Z,1.00
2018-06-22T08:45:58.230Z,0.93
2018-06-22T08:48:26.610Z,0.77
2018-06-22T08:50:55.172Z,1.20
2018-06-22T08:53:23.450Z,0.87
2018-06-22T08:55:51.775Z,0.90
2018-06-22T08:58:20.060Z,0.80
2018-06-22T09:00:48.448Z,0.63
2018-06-22T09:03:16.767Z,0.70
2018-06-22T09:05:45.091Z,1.37
2018-06-22T09:08:13.451Z,1.00
2018-06-22T09:10:41.729Z,0.77
2018-06-22T09:13:09.990Z,1.37
2018-06-22T09:15:38.270Z,0.60
2018-06-22T09:18:06.523Z,1.00
2018-06-22T09:20:34.848Z,0.70
2018-06-22T09:23:03.142Z,0.87
2018-06-22T09:25:31.412Z,1.07
2018-06-22T09:27:59.651Z,0.90
2018-06-22T09:30:27.923Z,0.70
2018-06-22T09:32:56.189Z,0.60
2018-06-22T09:35:24.467Z,1.10
2018-06-22T09:37:52.741Z,1.07
2018-06-22T09:40:21.033Z,0.97
2018-06-22T09:42:49.348Z,1.00
2018-06-22T09:45:17.660Z,1.10
2018-06-22T09:47:45.924Z,0.80
2018-06-22T09:50:14.223Z,1.03
2018-06-22T09:52:42.490Z,0.90
2018-06-22T09:55:10.889Z,1.00
2018-06-22T09:57:39.165Z,0.70
2018-06-22T10:00:07.443Z,0.83
2018-06-22T10:02:35.727Z,0.70
2018-06-22T10:05:03.981Z,0.90
2018-06-22T10:07:32.270Z,0.53
2018-06-22T10:10:00.581Z,0.73
2018-06-22T10:12:28.862Z,0.90
2018-06-22T10:14:57.152Z,0.50
2018-06-22T10:17:25.475Z,0.60
2018-06-22T10:19:53.740Z,0.70
2018-06-22T10:22:22.039Z,0.60
2018-06-22T10:24:50.327Z,0.70
2018-06-22T10:27:18.705Z,0.80
2018-06-22T10:29:46.990Z,0.77
2018-06-22T10:32:15.728Z,0.83
2018-06-22T10:34:43.998Z,0.60
2018-06-22T10:37:12.319Z,0.70
2018-06-22T10:39:40.595Z,0.80
2018-06-22T10:42:08.915Z,0.60
2018-06-22T10:44:37.234Z,0.67
2018-06-22T10:47:05.940Z,0.80
2018-06-22T10:49:34.236Z,0.77
2018-06-22T10:52:02.548Z,0.50
2018-06-22T10:54:30.891Z,0.67
2018-06-22T10:56:59.166Z,0.80
2018-06-22T10:59:27.553Z,0.50
2018-06-22T11:01:55.863Z,0.50
2018-06-22T11:04:24.139Z,1.10
2018-06-22T11:06:52.483Z,0.60
2018-06-22T11:09:20.806Z,0.50
2018-06-22T11:11:49.160Z,0.57
2018-06-22T11:14:17.465Z,0.80
2018-06-22T11:16:45.754Z,0.57
2018-06-22T11:19:14.070Z,0.50
2018-06-22T11:21:42.344Z,1.17
2018-06-22T11:24:10.930Z,0.57
2018-06-22T11:26:39.210Z,0.50
2018-06-22T11:29:07.530Z,0.50
2018-06-22T11:31:35.799Z,0.50
2018-06-22T11:34:04.100Z,0.50
2018-06-22T11:36:32.413Z,0.53
2018-06-22T11:39:00.740Z,0.60
2018-06-22T11:41:29.027Z,0.60
2018-06-22T11:43:57.335Z,1.33
2018-06-22T11:46:25.607Z,0.50
2018-06-22T11:48:53.904Z,0.50
2018-06-22T11:51:22.175Z,0.60
2018-06-22T11:53:50.465Z,0.70
2018-06-22T11:56:18.754Z,0.43
2018-06-22T11:58:47.041Z,0.50
2018-06-22T12:01:15.316Z,0.57
2018-06-22T12:03:43.624Z,0.50
2018-06-22T12:06:11.921Z,0.70
2018-06-22T12:08:40.210Z,0.90
2018-06-22T12:11:08.539Z,0.53
2018-06-22T12:13:36.865Z,0.67
2018-06-22T12:16:05.289Z,0.70
2018-06-22T12:18:33.580Z,0.83
2018-06-22T12:21:01.853Z,0.67
2018-06-22T12:23:30.147Z,0.50
2018-06-22T12:25:58.443Z,0.50
2018-06-22T12:28:26.710Z,1.10
2018-06-22T12:30:54.999Z,0.73
2018-06-22T12:33:23.270Z,0.87
2018-06-22T12:35:51.590Z,0.70
2018-06-22T12:38:19.861Z,0.70
2018-06-22T12:40:48.256Z,0.57
2018-06-22T12:43:16.552Z,0.60
2018-06-22T12:45:44.842Z,0.80
2018-06-22T12:48:13.130Z,0.70
2018-06-22T12:50:41.419Z,0.60
2018-06-22T12:53:09.734Z,0.70
2018-06-22T12:55:38.218Z,0.70
2018-06-22T12:58:06.525Z,1.03
2018-06-22T13:00:34.852Z,0.90
2018-06-22T13:03:03.150Z,0.80
2018-06-22T13:05:31.456Z,0.90
2018-06-22T13:07:59.788Z,0.93
2018-06-22T13:10:28.091Z,0.80
2018-06-22T13:12:56.387Z,0.60
2018-06-22T13:15:24.658Z,0.50
2018-06-22T13:17:52.919Z,0.63
2018-06-22T13:20:21.217Z,0.60
2018-06-22T13:22:49.872Z,0.60
2018-06-22T13:25:18.199Z,0.53
2018-06-22T13:27:46.500Z,0.97
2018-06-22T13:30:14.844Z,0.60
2018-06-22T13:32:43.258Z,0.87
2018-06-22T13:35:11.583Z,0.70
2018-06-22T13:37:39.838Z,0.80
2018-06-22T13:40:08.158Z,0.80
2018-06-22T13:42:36.437Z,0.60
2018-06-22T13:45:05.979Z,0.57
2018-06-22T13:47:35.399Z,1.10
2018-06-22T13:50:04.623Z,0.70
2018-06-22T13:52:33.039Z,1.07
2018-06-22T13:55:01.378Z,0.90
2018-06-22T13:57:29.680Z,0.80
2018-06-22T13:59:57.927Z,0.73
2018-06-22T14:02:26.195Z,0.93
2018-06-22T14:04:59.904Z,0.80
2018-06-22T14:07:28.188Z,0.90
2018-06-22T14:09:56.486Z,0.70
2018-06-22T14:12:24.787Z,0.80
2018-06-22T14:14:53.071Z,0.70
2018-06-22T14:17:21.385Z,0.87
2018-06-22T14:19:49.671Z,0.50
2018-06-22T14:22:17.979Z,0.73
2018-06-22T14:24:46.271Z,1.00
2018-06-22T14:27:14.655Z,0.80
2018-06-22T14:29:42.947Z,1.10
2018-06-22T14:32:11.238Z,0.93
2018-06-22T14:34:39.512Z,1.00
2018-06-22T14:37:07.812Z,0.70
2018-06-22T14:39:36.107Z,0.90
2018-06-22T14:42:04.410Z,0.90
2018-06-22T14:44:32.705Z,0.60
2018-06-22T14:47:01.025Z,1.00
2018-06-22T14:49:29.304Z,0.60
2018-06-22T14:52:00.391Z,0.70
2018-06-22T14:54:34.209Z,0.60
2018-06-22T14:57:07.937Z,0.87
2018-06-22T14:59:41.615Z,0.60
2018-06-22T15:02:15.196Z,0.60
2018-06-22T15:04:48.818Z,0.70
2018-06-22T15:07:22.528Z,0.70
2018-06-22T15:09:52.922Z,0.90
2018-06-22T15:12:21.203Z,1.10
2018-06-22T15:14:49.551Z,0.80
2018-06-22T15:17:17.810Z,0.60
2018-06-22T15:19:46.280Z,0.90
2018-06-22T15:22:14.661Z,0.77
2018-06-22T15:24:42.686Z,0.70
2018-06-22T15:27:11.642Z,0.60
2018-06-22T15:29:39.963Z,0.60
2018-06-22T15:32:08.244Z,0.70
2018-06-22T15:34:41.920Z,0.80
2018-06-22T15:37:15.587Z,1.00
2018-06-22T15:39:49.282Z,0.90
2018-06-22T15:42:23.023Z,0.70
2018-06-22T15:44:56.680Z,1.00
2018-06-22T15:47:30.324Z,0.90
2018-06-22T15:50:03.964Z,0.83
2018-06-22T15:52:37.636Z,0.90
2018-06-22T15:55:08.296Z,1.00
2018-06-22T15:57:36.745Z,0.80
2018-06-22T16:00:07.336Z,0.87
2018-06-22T16:02:40.970Z,0.80
2018-06-22T16:05:09.356Z,0.87
2018-06-22T16:07:37.844Z,0.53
2018-06-22T16:10:06.363Z,0.73
2018-06-22T16:12:36.872Z,0.80
2018-06-22T16:15:12.384Z,0.60
2018-06-22T16:17:45.992Z,0.70
2018-06-22T16:20:19.712Z,0.67
2018-06-22T16:22:53.206Z,0.63
2018-06-22T16:25:26.773Z,0.77
2018-06-22T16:27:59.293Z,0.60
2018-06-22T16:30:28.976Z,0.60
2018-06-22T16:32:57.277Z,0.60
2018-06-22T16:35:25.894Z,1.10
2018-06-22T16:37:54.333Z,0.70
2018-06-22T16:40:22.684Z,0.60
2018-06-22T16:42:51.895Z,0.70
2018-06-22T16:45:20.744Z,0.80
2018-06-22T16:47:49.064Z,0.80
2018-06-22T16:50:17.347Z,0.93
2018-06-22T16:52:45.798Z,0.83
2018-06-22T16:55:14.327Z,1.10
2018-06-22T16:57:42.671Z,0.93
2018-06-22T17:00:11.221Z,1.33
2018-06-22T17:02:39.601Z,0.80
2018-06-22T17:05:08.304Z,0.97
2018-06-22T17:07:41.784Z,0.73
2018-06-22T17:10:15.451Z,0.60
2018-06-22T17:12:49.035Z,1.07
2018-06-22T17:15:22.797Z,1.00
2018-06-22T17:17:56.515Z,0.70
2018-06-22T17:20:25.251Z,0.90
2018-06-22T17:22:53.807Z,0.60
2018-06-22T17:25:22.091Z,0.70
2018-06-22T17:27:50.399Z,1.33
2018-06-22T17:30:18.820Z,0.90
2018-06-22T17:32:47.091Z,1.73
2018-06-22T17:35:15.656Z,1.07
2018-06-22T17:37:44.332Z,1.77
2018-06-22T17:40:12.654Z,0.80
2018-06-22T17:42:40.999Z,1.00
2018-06-22T17:45:09.295Z,1.20
2018-06-22T17:47:37.341Z,0.90
2018-06-22T17:50:11.036Z,1.27
2018-06-22T17:52:39.343Z,1.37
2018-06-22T17:55:07.651Z,1.37
2018-06-22T17:57:35.972Z,1.87
2018-06-22T18:00:10.144Z,0.90
2018-06-22T18:02:43.854Z,1.00
2018-06-22T18:05:17.444Z,1.50
2018-06-22T18:07:47.555Z,1.43
2018-06-22T18:10:21.267Z,1.50
2018-06-22T18:12:51.561Z,1.20
2018-06-22T18:15:20.436Z,1.70
2018-06-22T18:17:48.862Z,1.57
2018-06-22T18:20:17.427Z,1.20
2018-06-22T18:22:46.789Z,1.40
2018-06-22T18:25:15.366Z,1.70
2018-06-22T18:27:43.671Z,1.37
2018-06-22T18:30:13.231Z,1.63
2018-06-22T18:32:41.614Z,1.50
2018-06-22T18:35:12.071Z,1.33
2018-06-22T18:37:40.432Z,1.50
2018-06-22T18:40:09.664Z,1.73
2018-06-22T18:42:38.052Z,1.30
2018-06-22T18:45:07.588Z,1.80
2018-06-22T18:47:35.931Z,1.20
2018-06-22T18:50:04.291Z,1.47
2018-06-22T18:52:38.013Z,1.47
2018-06-22T18:55:11.583Z,1.47
2018-06-22T18:57:45.176Z,1.53
2018-06-22T19:00:18.916Z,1.40
2018-06-22T19:02:52.834Z,1.50
2018-06-22T19:05:21.127Z,1.10
2018-06-22T19:07:49.444Z,1.40
2018-06-22T19:10:17.770Z,1.20
2018-06-22T19:12:46.089Z,1.87
2018-06-22T19:15:14.377Z,1.67
2018-06-22T19:17:42.731Z,1.47
2018-06-22T19:20:11.039Z,2.47
2018-06-22T19:22:39.402Z,1.60
2018-06-22T19:25:07.767Z,1.70
2018-06-22T19:27:36.067Z,1.80
2018-06-22T19:30:04.770Z,1.60
2018-06-22T19:32:33.090Z,1.90
2018-06-22T19:35:06.817Z,1.87
2018-06-22T19:37:35.119Z,1.83
2018-06-22T19:40:03.439Z,1.97
2018-06-22T19:42:31.759Z,1.60
2018-06-22T19:45:05.607Z,1.83
2018-06-22T19:47:39.084Z,1.60
2018-06-22T19:50:12.868Z,2.20
2018-06-22T19:52:46.485Z,1.67
2018-06-22T19:55:14.799Z,1.60
2018-06-22T19:57:43.159Z,1.83
2018-06-22T20:00:11.567Z,1.43
2018-06-22T20:02:43.152Z,1.53
2018-06-22T20:05:11.712Z,2.03
2018-06-22T20:07:40.130Z,1.50
2018-06-22T20:10:08.764Z,1.33
2018-06-22T20:12:37.307Z,1.40
2018-06-22T20:15:05.781Z,1.37
2018-06-22T20:17:34.079Z,1.57
2018-06-22T20:20:02.339Z,1.17
2018-06-22T20:22:30.636Z,1.53
2018-06-22T20:25:04.480Z,1.47
2018-06-22T20:27:32.784Z,1.80
2018-06-22T20:30:01.066Z,1.70
2018-06-22T20:32:29.411Z,2.40
2018-06-22T20:35:03.151Z,1.83
2018-06-22T20:37:36.811Z,1.90
2018-06-22T20:40:10.387Z,1.57
2018-06-22T20:42:44.116Z,1.93
2018-06-22T20:45:17.667Z,1.07
2018-06-22T20:47:51.308Z,1.43
2018-06-22T20:50:24.894Z,1.50
2018-06-22T20:52:53.227Z,1.50
2018-06-22T20:55:21.487Z,1.87
2018-06-22T21:00:24.275Z,1.90
2018-06-22T21:02:52.605Z,1.90
2018-06-22T21:05:20.907Z,1.50
2018-06-22T21:07:49.186Z,1.70
2018-06-22T21:10:17.520Z,1.50
2018-06-22T21:12:45.874Z,1.80
2018-06-22T21:15:14.259Z,2.07
2018-06-22T21:17:42.644Z,1.60
2018-06-22T21:20:10.987Z,2.37
2018-06-22T21:22:39.286Z,1.60
2018-06-22T21:25:07.622Z,2.57
2018-06-22T21:27:41.308Z,1.33
2018-06-22T21:30:14.887Z,1.50
2018-06-22T21:32:48.464Z,1.87
2018-06-22T21:35:21.975Z,2.00
2018-06-22T21:37:55.535Z,1.87
2018-06-22T21:40:23.878Z,2.30
2018-06-22T21:42:52.175Z,1.80
2018-06-22T21:45:20.522Z,1.60
2018-06-22T21:47:48.856Z,1.53
2018-06-22T21:50:17.358Z,1.73
2018-06-22T21:52:45.858Z,1.90
2018-06-22T21:55:14.155Z,1.83
2018-06-22T21:57:42.443Z,1.73
2018-06-22T22:00:11.750Z,1.67
2018-06-22T22:02:40.136Z,1.80
2018-06-22T22:05:08.444Z,1.67
2018-06-22T22:07:36.761Z,2.10
2018-06-22T22:10:05.868Z,1.30
2018-06-22T22:12:34.235Z,1.80
2018-06-22T22:15:02.524Z,1.47
2018-06-22T22:17:30.818Z,2.30
2018-06-22T22:19:59.106Z,1.90
2018-06-22T22:22:27.416Z,1.70
2018-06-22T22:24:55.706Z,2.00
2018-06-22T22:27:24.017Z,2.20
2018-06-22T22:29:52.307Z,1.30
2018-06-22T22:32:20.421Z,1.90
2018-06-22T22:34:48.700Z,2.53
2018-06-22T22:37:16.996Z,1.60
2018-06-22T22:39:45.287Z,1.73
2018-06-22T22:42:20.011Z,1.27
2018-06-22T22:44:48.287Z,1.90
2018-06-22T22:47:16.616Z,1.57
2018-06-22T22:49:44.892Z,1.37
2018-06-22T22:52:13.177Z,1.63
2018-06-22T22:54:41.482Z,1.30
2018-06-22T22:57:09.779Z,1.50
2018-06-22T22:59:38.140Z,1.70
2018-06-22T23:02:06.150Z,1.77
2018-06-22T23:04:34.451Z,1.47
2018-06-22T23:07:02.739Z,1.60
2018-06-22T23:09:31.055Z,1.90
2018-06-22T23:11:59.322Z,1.87
2018-06-22T23:14:27.747Z,2.57
2018-06-22T23:16:56.179Z,2.10
2018-06-22T23:19:24.576Z,2.10
2018-06-22T23:21:52.847Z,2.27
2018-06-22T23:24:21.139Z,2.13
2018-06-22T23:26:49.394Z,1.87
2018-06-22T23:29:17.674Z,1.77
2018-06-22T23:31:45.947Z,1.93
2018-06-22T23:34:14.224Z,1.93
2018-06-22T23:36:42.536Z,2.23
2018-06-22T23:39:11.396Z,2.30
2018-06-22T23:41:39.720Z,2.37
2018-06-22T23:44:08.007Z,1.70
2018-06-22T23:46:36.259Z,2.10
2018-06-22T23:49:04.562Z,1.80
2018-06-22T23:51:32.835Z,2.00
2018-06-22T23:54:01.114Z,1.93
2018-06-22T23:56:29.368Z,1.93
2018-06-22T23:58:57.620Z,2.57
